Accueil
METAR-TAF:

METAR-TAF

Aéroports :

Aéroport de Huesca-Pyrénées

Huesca, Espagne

latitude: 42-04-32N, longitude: 0-18-58W, altitude: 539 m

Observation

Le bulletin a été fait il y a 29 minutes, à 03:30 UTC
Vent 6 kt de ouest/sud-ouest, variant entre sud-ouest et ouest/nord-ouest
Température 17°C
Humidité 72%
Pression 1012 hPa
Visibilité 10 km ou plus
pas de nuages en-dessous de 1500 mètres et pas de cumulonimbus.

METAR: LEHC 060330Z AUTO 24006KT 220V290 CAVOK 17/12 Q1012

Heure: 05:59 (03:59 UTC)

Prévision

Le bulletin a été fait il y a 1 heure et 59 minutes, à 02:00 UTC
Prévision valable du 06 à 03 UTC au 07 à 03 UTC
Vent 4 kt de direction variable
Visibilité 10 km ou plus
Quelques nuages à une hauteur de 4500 ft
Evoluant progressivement
du 06 à 17 UTC au 06 à 19 UTC
Vent 12 kt de sud-est

TAF: LEHC 060200Z 0603/0703 VRB04KT 9999 FEW045 TX33/0614Z TN17/0605Z BECMG 0617/0619 13012KT

Observations et prévisions météorologiques de plus de 4000 aéroports (messages METAR et TAF).

Les stations disponibles sont représentées par des disques jaunes et rouges sur la carte.

Passer la souris dessus pour voir le nom de la station.

Cliquer dessus pour voir les observations et prévisions météorologiques.

Pour changer de carte: cliquez sur les boutons verts avec une croix noire pour zoomer, sur le bouton vert avec un tiret pour effectuer un zoom arrière, ou sur les flèches vertes pour les cartes adjacentes.


METAR-TAF: